createdAt,value
2019-04-14T00:01:39.103Z,3.42
2019-04-14T00:04:22.584Z,3.69
2019-04-14T00:06:54.814Z,3.53
2019-04-14T00:09:27.207Z,3.48
2019-04-14T00:11:59.093Z,3.32
2019-04-14T00:14:30.008Z,3.56
2019-04-14T00:17:02.106Z,3.50
2019-04-14T00:19:34.673Z,3.47
2019-04-14T00:22:07.217Z,3.39
2019-04-14T00:24:40.228Z,3.56
2019-04-14T00:27:11.359Z,3.41
2019-04-14T00:29:42.220Z,3.41
2019-04-14T00:32:14.111Z,3.50
2019-04-14T00:34:59.415Z,3.45
2019-04-14T00:37:35.881Z,3.62
2019-04-14T00:40:15.136Z,3.51
2019-04-14T00:43:00.487Z,3.61
2019-04-14T00:45:45.291Z,3.59
2019-04-14T00:48:18.954Z,3.40
2019-04-14T00:50:49.539Z,3.51
2019-04-14T00:53:20.813Z,3.33
2019-04-14T00:55:51.734Z,3.40
2019-04-14T00:58:23.605Z,3.32
2019-04-14T01:00:55.752Z,3.52
2019-04-14T01:03:26.646Z,3.33
2019-04-14T01:05:59.053Z,3.42
2019-04-14T01:08:29.937Z,3.33
2019-04-14T01:11:01.167Z,3.49
2019-04-14T01:13:33.173Z,3.32
2019-04-14T01:16:11.597Z,3.15
2019-04-14T01:18:38.672Z,3.27
2019-04-14T01:21:10.944Z,3.09
2019-04-14T01:23:43.472Z,3.32
2019-04-14T01:26:16.021Z,3.08
2019-04-14T01:28:48.204Z,3.29
2019-04-14T01:31:20.649Z,3.25
2019-04-14T01:33:53.283Z,3.09
2019-04-14T01:36:25.519Z,3.19
2019-04-14T01:38:56.380Z,3.17
2019-04-14T01:41:28.226Z,2.87
2019-04-14T01:44:00.234Z,2.87
2019-04-14T01:46:33.052Z,2.94
2019-04-14T01:49:04.935Z,2.81
2019-04-14T01:51:59.223Z,2.75
2019-04-14T01:54:42.992Z,2.92
2019-04-14T01:57:32.893Z,2.72
2019-04-14T02:00:22.828Z,3.10
2019-04-14T02:02:55.374Z,2.92
2019-04-14T02:05:26.360Z,2.74
2019-04-14T02:07:58.003Z,2.88
2019-04-14T02:10:30.392Z,2.82
2019-04-14T02:13:02.824Z,2.82
2019-04-14T02:15:35.114Z,2.81
2019-04-14T02:18:07.711Z,2.78
2019-04-14T02:20:40.380Z,2.61
2019-04-14T02:23:12.598Z,2.56
2019-04-14T02:25:45.058Z,2.76
2019-04-14T02:28:17.651Z,2.73
2019-04-14T02:31:00.224Z,2.67
2019-04-14T02:33:44.590Z,2.57
2019-04-14T02:39:01.290Z,2.42
2019-04-14T02:41:27.690Z,2.68
2019-04-14T02:44:04.383Z,2.45
2019-04-14T02:46:39.992Z,2.33
2019-04-14T02:49:20.418Z,2.45
2019-04-14T02:51:36.375Z,2.40
2019-04-14T02:54:13.832Z,2.45
2019-04-14T02:56:41.212Z,2.27
2019-04-14T02:59:11.715Z,2.25
2019-04-14T03:04:19.140Z,2.22
2019-04-14T03:06:58.210Z,2.12
2019-04-14T03:09:38.838Z,2.25
2019-04-14T03:12:01.172Z,2.23
2019-04-14T03:17:39.094Z,2.27
2019-04-14T03:20:27.403Z,2.13
2019-04-14T03:25:51.317Z,2.03
2019-04-14T03:28:31.739Z,2.04
2019-04-14T03:31:25.250Z,2.08
2019-04-14T03:34:17.603Z,1.82
2019-04-14T03:41:24.062Z,1.89
2019-04-14T03:43:48.304Z,1.83
2019-04-14T03:46:41.502Z,1.91
2019-04-14T03:48:58.415Z,2.00
2019-04-14T03:51:43.159Z,1.88
2019-04-14T03:53:58.738Z,1.90
2019-04-14T03:57:01.838Z,2.12
2019-04-14T03:59:34.511Z,1.82
2019-04-14T04:02:05.454Z,1.85
2019-04-14T04:04:36.591Z,1.71
2019-04-14T04:07:08.240Z,1.84
2019-04-14T04:09:45.480Z,1.68
2019-04-14T04:12:16.718Z,1.83
2019-04-14T04:14:48.543Z,1.62
2019-04-14T04:17:56.598Z,1.74
2019-04-14T04:20:35.557Z,1.58
2019-04-14T04:23:24.889Z,1.57
2019-04-14T04:26:01.746Z,1.59
2019-04-14T04:28:50.382Z,1.66
2019-04-14T04:31:30.686Z,1.53
2019-04-14T04:34:10.099Z,1.65
2019-04-14T04:36:59.559Z,1.53
2019-04-14T04:39:36.360Z,1.55
2019-04-14T04:42:07.018Z,1.55
2019-04-14T04:44:38.244Z,1.44
2019-04-14T04:47:09.916Z,1.65
2019-04-14T04:49:41.042Z,1.42
2019-04-14T04:52:13.989Z,1.56
2019-04-14T04:54:45.021Z,1.49
2019-04-14T04:57:15.840Z,1.52
2019-04-14T04:59:47.663Z,1.99
2019-04-14T05:02:19.811Z,1.76
2019-04-14T05:04:50.821Z,1.70
2019-04-14T05:07:23.157Z,1.76
2019-04-14T05:10:16.036Z,1.50
2019-04-14T05:13:00.565Z,1.69
2019-04-14T05:15:48.941Z,1.82
2019-04-14T05:18:22.332Z,1.84
2019-04-14T05:20:55.217Z,1.91
2019-04-14T05:23:26.322Z,1.97
2019-04-14T05:25:58.148Z,2.14
2019-04-14T05:28:31.014Z,2.46
2019-04-14T05:31:03.250Z,2.21
2019-04-14T05:33:34.535Z,2.10
2019-04-14T05:36:06.328Z,2.10
2019-04-14T05:38:38.517Z,2.16
2019-04-14T05:41:11.502Z,2.25
2019-04-14T05:43:48.766Z,2.25
2019-04-14T05:46:16.345Z,2.16
2019-04-14T05:48:47.409Z,2.16
2019-04-14T05:51:20.165Z,2.32
2019-04-14T05:53:52.280Z,2.39
2019-04-14T05:56:23.726Z,2.86
2019-04-14T05:58:55.692Z,2.58
2019-04-14T06:01:27.042Z,2.64
2019-04-14T06:03:58.311Z,2.59
2019-04-14T06:06:29.624Z,2.72
2019-04-14T06:09:00.497Z,2.47
2019-04-14T06:11:32.737Z,2.60
2019-04-14T06:14:03.951Z,2.60
2019-04-14T06:16:35.065Z,2.86
2019-04-14T06:19:05.935Z,3.22
2019-04-14T06:21:37.056Z,3.36
2019-04-14T06:24:08.207Z,3.38
2019-04-14T06:26:39.148Z,3.35
2019-04-14T06:29:09.983Z,3.25
2019-04-14T06:32:02.983Z,3.09
2019-04-14T06:34:46.758Z,2.82
2019-04-14T06:37:26.520Z,2.80
2019-04-14T06:39:57.654Z,3.02
2019-04-14T06:42:28.612Z,3.10
2019-04-14T06:44:59.465Z,3.30
2019-04-14T06:47:30.727Z,3.28
2019-04-14T06:50:01.863Z,3.20
2019-04-14T06:52:32.734Z,3.36
2019-04-14T06:55:03.789Z,3.36
2019-04-14T06:57:34.995Z,3.44
2019-04-14T07:00:05.999Z,3.52
2019-04-14T07:02:36.855Z,3.49
2019-04-14T07:05:07.731Z,3.73
2019-04-14T07:07:38.671Z,3.80
2019-04-14T07:10:09.691Z,3.55
2019-04-14T07:12:43.008Z,3.81
2019-04-14T07:15:13.449Z,3.93
2019-04-14T07:17:44.761Z,3.90
2019-04-14T07:20:15.626Z,3.79
2019-04-14T07:22:46.489Z,3.99
2019-04-14T07:25:17.331Z,3.96
2019-04-14T07:27:48.228Z,3.96
2019-04-14T07:30:44.264Z,4.18
2019-04-14T07:33:32.687Z,4.38
2019-04-14T07:36:31.816Z,4.31
2019-04-14T07:39:27.957Z,4.30
2019-04-14T07:42:07.152Z,4.42
2019-04-14T07:44:56.335Z,4.60
2019-04-14T07:47:43.440Z,4.43
2019-04-14T07:50:39.612Z,4.55
2019-04-14T07:53:28.735Z,4.32
2019-04-14T07:56:13.974Z,4.62
2019-04-14T07:58:56.282Z,4.65
2019-04-14T08:01:44.783Z,4.63
2019-04-14T08:04:18.976Z,4.62
2019-04-14T08:06:51.621Z,4.61
2019-04-14T08:09:22.457Z,4.92
2019-04-14T08:11:53.458Z,5.08
2019-04-14T08:14:24.608Z,4.94
2019-04-14T08:16:56.368Z,4.72
2019-04-14T08:19:27.202Z,4.68
2019-04-14T08:21:58.101Z,4.90
2019-04-14T08:24:29.209Z,4.62
2019-04-14T08:27:00.389Z,4.79
2019-04-14T08:29:31.926Z,4.83
2019-04-14T08:32:02.755Z,5.08
2019-04-14T08:34:33.861Z,5.38
2019-04-14T08:37:04.741Z,5.18
2019-04-14T08:39:35.955Z,5.26
2019-04-14T08:42:24.600Z,5.02
2019-04-14T08:44:56.060Z,5.23
2019-04-14T08:47:49.631Z,5.34
2019-04-14T08:50:42.842Z,5.35
2019-04-14T08:53:20.011Z,5.35
2019-04-14T08:56:12.641Z,5.49
2019-04-14T08:58:59.193Z,5.14
2019-04-14T09:01:36.071Z,5.22
2019-04-14T09:04:31.851Z,5.52
2019-04-14T09:07:20.752Z,5.36
2019-04-14T09:09:55.918Z,5.25
2019-04-14T09:12:30.437Z,5.27
2019-04-14T09:15:01.350Z,5.53
2019-04-14T09:17:33.534Z,5.55
2019-04-14T09:20:05.389Z,5.52
2019-04-14T09:22:36.551Z,5.70
2019-04-14T09:25:08.005Z,5.71
2019-04-14T09:27:39.358Z,5.85
2019-04-14T09:30:10.394Z,5.65
2019-04-14T09:32:41.382Z,5.56
2019-04-14T09:35:12.253Z,5.68
2019-04-14T09:37:43.182Z,5.52
2019-04-14T09:40:14.366Z,5.65
2019-04-14T09:42:45.271Z,5.79
2019-04-14T09:45:16.216Z,5.85
2019-04-14T09:47:47.075Z,6.07
2019-04-14T09:50:17.988Z,5.76
2019-04-14T09:52:49.510Z,5.80
2019-04-14T09:55:20.383Z,5.71
2019-04-14T09:57:51.207Z,6.00
2019-04-14T10:00:22.162Z,5.98
2019-04-14T10:02:53.601Z,5.82
2019-04-14T10:05:24.842Z,5.72
2019-04-14T10:07:55.992Z,5.77
2019-04-14T10:10:26.901Z,5.61
2019-04-14T10:12:58.290Z,5.69
2019-04-14T10:15:29.173Z,5.82
2019-04-14T10:18:00.055Z,5.93
2019-04-14T10:20:31.428Z,5.99
2019-04-14T10:23:02.308Z,6.07
2019-04-14T10:25:33.588Z,6.17
2019-04-14T10:28:04.537Z,5.91
2019-04-14T10:30:35.698Z,5.93
2019-04-14T10:33:06.602Z,6.03
2019-04-14T10:35:37.880Z,5.85
2019-04-14T10:38:09.193Z,5.89
2019-04-14T10:40:40.041Z,6.01
2019-04-14T10:43:11.151Z,5.89
2019-04-14T10:45:42.073Z,6.06
2019-04-14T10:48:12.985Z,5.93
2019-04-14T10:50:45.018Z,5.83
2019-04-14T10:53:16.111Z,5.83
2019-04-14T10:55:47.219Z,5.80
2019-04-14T10:58:18.163Z,6.06
2019-04-14T11:00:49.269Z,5.65
2019-04-14T11:03:21.761Z,5.68
2019-04-14T11:06:00.874Z,5.86
2019-04-14T11:08:31.726Z,5.91
2019-04-14T11:11:03.415Z,5.66
2019-04-14T11:13:35.354Z,5.47
2019-04-14T11:16:07.319Z,5.60
2019-04-14T11:18:39.614Z,5.68
2019-04-14T11:21:10.481Z,5.87
2019-04-14T11:23:41.322Z,5.78
2019-04-14T11:26:12.927Z,5.97
2019-04-14T11:28:43.848Z,6.29
2019-04-14T11:31:17.124Z,5.77
2019-04-14T11:34:01.271Z,5.77
2019-04-14T11:36:49.988Z,6.07
2019-04-14T11:39:21.100Z,6.11
2019-04-14T11:41:52.055Z,6.00
2019-04-14T11:44:22.911Z,5.99
2019-04-14T11:46:53.806Z,6.14
2019-04-14T11:49:25.019Z,5.95
2019-04-14T11:51:56.040Z,5.55
2019-04-14T11:54:26.959Z,5.51
2019-04-14T11:56:57.863Z,5.62
2019-04-14T11:59:48.441Z,5.62
2019-04-14T12:02:40.399Z,5.72
2019-04-14T12:05:36.112Z,5.96
2019-04-14T12:08:26.106Z,5.96
2019-04-14T12:10:57.523Z,5.62
2019-04-14T12:13:28.615Z,5.48
2019-04-14T12:15:59.525Z,5.38
2019-04-14T12:18:30.978Z,5.50
2019-04-14T12:21:01.833Z,5.63
2019-04-14T12:23:33.279Z,5.71
2019-04-14T12:26:05.979Z,5.54
2019-04-14T12:28:36.881Z,5.72
2019-04-14T12:31:09.344Z,5.60
2019-04-14T12:33:40.221Z,5.82
2019-04-14T12:36:13.008Z,5.63
2019-04-14T12:38:45.478Z,5.42
2019-04-14T12:41:22.640Z,5.54
2019-04-14T12:44:01.360Z,5.45
2019-04-14T12:46:42.466Z,5.51
2019-04-14T12:49:23.643Z,5.58
2019-04-14T12:52:21.041Z,5.34
2019-04-14T12:54:45.145Z,5.42
2019-04-14T12:57:18.297Z,5.52
2019-04-14T12:59:49.162Z,5.38
2019-04-14T13:02:22.538Z,5.41
2019-04-14T13:04:55.396Z,5.48
2019-04-14T13:07:25.936Z,5.47
2019-04-14T13:09:57.097Z,5.49
2019-04-14T13:12:27.989Z,5.54
2019-04-14T13:14:58.844Z,5.40
2019-04-14T13:17:29.737Z,5.49
2019-04-14T13:20:00.577Z,5.57
2019-04-14T13:22:34.005Z,5.65
2019-04-14T13:25:05.582Z,5.67
2019-04-14T13:27:36.488Z,5.76
2019-04-14T13:30:09.963Z,5.52
2019-04-14T13:32:40.885Z,5.45
2019-04-14T13:35:11.867Z,5.42
2019-04-14T13:37:43.253Z,5.33
2019-04-14T13:40:14.733Z,5.41
2019-04-14T13:42:45.684Z,5.53
2019-04-14T13:45:16.532Z,5.51
2019-04-14T13:47:47.421Z,5.62
2019-04-14T13:50:18.283Z,5.80
2019-04-14T13:52:49.422Z,5.69
2019-04-14T13:55:20.685Z,5.71
2019-04-14T13:57:51.528Z,5.64
2019-04-14T14:00:22.770Z,5.42
2019-04-14T14:02:53.711Z,5.57
2019-04-14T14:05:24.621Z,5.36
2019-04-14T14:07:55.491Z,5.54
2019-04-14T14:10:29.806Z,5.55
2019-04-14T14:13:13.278Z,5.55
2019-04-14T14:16:07.338Z,5.38
2019-04-14T14:18:48.419Z,5.61
2019-04-14T14:21:56.815Z,5.63
2019-04-14T14:24:39.431Z,5.66
2019-04-14T14:27:10.969Z,5.68
2019-04-14T14:29:41.954Z,5.56
2019-04-14T14:32:19.203Z,5.65
2019-04-14T14:34:50.363Z,5.58
2019-04-14T14:37:21.231Z,5.63
2019-04-14T14:39:53.169Z,5.69
2019-04-14T14:42:24.077Z,5.67
2019-04-14T14:45:00.968Z,5.61
2019-04-14T14:47:32.722Z,5.60
2019-04-14T14:50:26.600Z,5.74
2019-04-14T14:52:57.728Z,5.73
2019-04-14T14:55:28.688Z,5.75
2019-04-14T14:57:59.546Z,5.76
2019-04-14T15:00:32.596Z,5.84
2019-04-14T15:03:04.594Z,5.87
2019-04-14T15:05:36.590Z,5.87
2019-04-14T15:08:07.829Z,6.04
2019-04-14T15:10:38.724Z,6.11
2019-04-14T15:13:10.576Z,5.91
2019-04-14T15:15:41.513Z,6.19
2019-04-14T15:18:13.125Z,6.03
2019-04-14T15:20:44.125Z,6.12
2019-04-14T15:23:24.684Z,6.15
2019-04-14T15:25:47.923Z,6.33
2019-04-14T15:28:18.817Z,6.30
2019-04-14T15:30:49.701Z,6.14
2019-04-14T15:33:20.598Z,6.22
2019-04-14T15:35:52.461Z,6.18
2019-04-14T15:38:24.300Z,6.28
2019-04-14T15:40:55.222Z,6.40
2019-04-14T15:43:26.366Z,6.22
2019-04-14T15:45:59.464Z,6.15
2019-04-14T15:48:30.383Z,6.28
2019-04-14T15:51:01.544Z,6.26
2019-04-14T15:53:38.205Z,6.41
2019-04-14T15:56:06.779Z,6.28
2019-04-14T15:58:43.639Z,6.16
2019-04-14T16:01:36.411Z,6.21
2019-04-14T16:04:29.644Z,6.27
2019-04-14T16:07:19.807Z,6.26
2019-04-14T16:10:01.771Z,6.14
2019-04-14T16:12:56.034Z,6.16
2019-04-14T16:16:04.372Z,6.18
2019-04-14T16:18:49.138Z,6.26
2019-04-14T16:21:20.026Z,6.30
2019-04-14T16:23:51.735Z,6.41
2019-04-14T16:26:44.894Z,6.43
2019-04-14T16:29:20.007Z,6.42
2019-04-14T16:32:12.913Z,6.33
2019-04-14T16:34:56.161Z,6.36
2019-04-14T16:37:27.395Z,6.29
2019-04-14T16:39:58.658Z,6.31
2019-04-14T16:42:29.806Z,6.40
2019-04-14T16:45:00.651Z,6.40
2019-04-14T16:47:32.141Z,6.46
2019-04-14T16:50:03.454Z,6.48
2019-04-14T16:52:56.622Z,6.41
2019-04-14T16:55:43.847Z,6.41
2019-04-14T16:58:20.383Z,6.44
2019-04-14T17:00:56.357Z,6.42
2019-04-14T17:03:27.208Z,6.40
2019-04-14T17:05:58.463Z,6.42
2019-04-14T17:08:29.556Z,6.36
2019-04-14T17:11:00.723Z,6.36
2019-04-14T17:13:34.812Z,6.38
2019-04-14T17:16:23.594Z,6.48
2019-04-14T17:19:03.255Z,6.45
2019-04-14T17:21:42.542Z,6.47
2019-04-14T17:24:31.178Z,6.44
2019-04-14T17:27:11.767Z,6.52
2019-04-14T17:30:16.980Z,6.47
2019-04-14T17:33:07.581Z,6.57
2019-04-14T17:36:03.998Z,6.64
2019-04-14T17:38:48.790Z,6.54
2019-04-14T17:41:56.736Z,6.53
2019-04-14T17:44:45.366Z,6.67
2019-04-14T17:47:34.378Z,6.59
2019-04-14T17:50:23.996Z,6.60
2019-04-14T17:53:00.577Z,6.63
2019-04-14T17:55:49.117Z,6.69
2019-04-14T17:58:15.233Z,6.62
2019-04-14T18:00:56.684Z,6.47
2019-04-14T18:03:38.196Z,6.60
2019-04-14T18:06:28.703Z,6.69
2019-04-14T18:09:29.026Z,6.62
2019-04-14T18:12:19.126Z,6.53
2019-04-14T18:15:15.195Z,6.52
2019-04-14T18:18:05.105Z,6.50
2019-04-14T18:20:41.080Z,6.43
2019-04-14T18:23:11.978Z,6.49
2019-04-14T18:25:43.507Z,6.47
2019-04-14T18:28:25.996Z,6.47
2019-04-14T18:31:01.958Z,6.47
2019-04-14T18:33:52.387Z,6.42
2019-04-14T18:36:45.379Z,6.46
2019-04-14T18:39:49.734Z,6.49
2019-04-14T18:42:25.257Z,6.57
2019-04-14T18:45:15.024Z,6.69
2019-04-14T18:47:48.660Z,6.66
2019-04-14T18:50:27.644Z,6.58
2019-04-14T18:53:08.961Z,6.54
2019-04-14T18:55:48.795Z,6.44
2019-04-14T18:58:42.717Z,6.44
2019-04-14T19:01:18.533Z,6.53
2019-04-14T19:03:49.419Z,6.49
2019-04-14T19:06:20.309Z,6.51
2019-04-14T19:08:51.867Z,6.47
2019-04-14T19:11:40.631Z,6.48
2019-04-14T19:14:14.378Z,6.48
2019-04-14T19:16:48.637Z,6.51
2019-04-14T19:19:20.510Z,6.50
2019-04-14T19:21:51.624Z,6.48
2019-04-14T19:24:22.500Z,6.55
2019-04-14T19:26:53.677Z,6.56
2019-04-14T19:29:27.549Z,6.58
2019-04-14T19:31:57.276Z,6.54
2019-04-14T19:34:28.136Z,6.62
2019-04-14T19:36:59.428Z,6.58
2019-04-14T19:39:31.191Z,6.62
2019-04-14T19:42:02.058Z,6.58
2019-04-14T19:44:32.920Z,6.69
2019-04-14T19:47:03.915Z,6.72
2019-04-14T19:49:34.816Z,6.68
2019-04-14T19:52:06.045Z,6.71
2019-04-14T19:54:37.240Z,6.80
2019-04-14T19:57:08.100Z,6.65
2019-04-14T19:59:40.105Z,6.59
2019-04-14T20:02:11.208Z,6.59
2019-04-14T20:04:42.071Z,6.72
2019-04-14T20:07:13.118Z,6.73
2019-04-14T20:09:44.241Z,6.76
2019-04-14T20:12:15.398Z,6.67
2019-04-14T20:14:47.867Z,6.73
2019-04-14T20:17:53.106Z,6.69
2019-04-14T20:20:35.613Z,6.69
2019-04-14T20:23:17.152Z,6.73
2019-04-14T20:26:04.426Z,6.70
2019-04-14T20:28:40.045Z,6.65
2019-04-14T20:31:26.794Z,6.58
2019-04-14T20:33:58.030Z,6.59
2019-04-14T20:36:29.456Z,6.68
2019-04-14T20:39:00.396Z,6.76
2019-04-14T20:41:31.915Z,6.96
2019-04-14T20:44:03.311Z,6.95
2019-04-14T20:46:34.230Z,6.82
2019-04-14T20:49:06.062Z,6.79
2019-04-14T20:51:36.934Z,6.82
2019-04-14T20:54:07.872Z,6.75
2019-04-14T20:56:38.876Z,6.65
2019-04-14T20:59:09.802Z,6.74
2019-04-14T21:01:44.869Z,6.67
2019-04-14T21:04:27.941Z,6.65
2019-04-14T21:07:16.793Z,6.64
2019-04-14T21:09:57.257Z,6.74
2019-04-14T21:12:50.164Z,6.82
2019-04-14T21:15:34.825Z,6.75
2019-04-14T21:18:12.487Z,6.80
2019-04-14T21:21:11.440Z,6.56
2019-04-14T21:23:56.708Z,6.60
2019-04-14T21:27:04.665Z,6.57
2019-04-14T21:30:00.360Z,6.60
2019-04-14T21:32:39.329Z,6.63
2019-04-14T21:35:41.547Z,6.87
2019-04-14T21:38:24.614Z,6.97
2019-04-14T21:41:02.703Z,6.88
2019-04-14T21:43:33.525Z,6.89
2019-04-14T21:46:04.580Z,6.81
2019-04-14T21:48:35.659Z,6.77
2019-04-14T21:51:06.602Z,6.74
2019-04-14T21:53:37.833Z,6.70
2019-04-14T21:56:13.488Z,6.83
2019-04-14T21:59:00.261Z,6.83
2019-04-14T22:01:53.002Z,6.79
2019-04-14T22:04:43.825Z,6.82
2019-04-14T22:07:32.590Z,6.73
2019-04-14T22:10:18.095Z,6.93
2019-04-14T22:12:49.399Z,6.87
2019-04-14T22:15:20.270Z,6.89
2019-04-14T22:17:51.590Z,6.77
2019-04-14T22:20:22.483Z,6.78
2019-04-14T22:22:53.240Z,6.65
2019-04-14T22:25:24.360Z,6.73
2019-04-14T22:27:55.316Z,6.54
2019-04-14T22:30:26.178Z,6.64
2019-04-14T22:32:57.031Z,6.70
2019-04-14T22:35:28.935Z,6.69
2019-04-14T22:38:00.340Z,6.56
2019-04-14T22:40:31.205Z,6.61
2019-04-14T22:43:02.155Z,6.64
2019-04-14T22:45:33.273Z,6.56
2019-04-14T22:48:04.745Z,6.48
2019-04-14T22:50:35.588Z,6.55
2019-04-14T22:53:06.458Z,6.52
2019-04-14T22:55:37.700Z,6.43
2019-04-14T22:58:09.736Z,6.56
2019-04-14T23:00:45.511Z,6.55
2019-04-14T23:03:37.273Z,6.59
2019-04-14T23:06:39.120Z,6.83
2019-04-14T23:09:32.229Z,6.59
2019-04-14T23:12:12.955Z,6.57
2019-04-14T23:14:50.836Z,6.70
2019-04-14T23:17:33.384Z,6.66
2019-04-14T23:20:30.508Z,6.62
2019-04-14T23:23:11.137Z,6.69
2019-04-14T23:25:42.216Z,6.69
2019-04-14T23:28:14.279Z,6.71
2019-04-14T23:30:45.125Z,6.67
2019-04-14T23:33:16.911Z,6.68
2019-04-14T23:35:48.431Z,6.65
2019-04-14T23:38:19.294Z,6.68
2019-04-14T23:40:50.365Z,6.49
2019-04-14T23:43:21.552Z,6.39
2019-04-14T23:45:52.397Z,6.55
2019-04-14T23:48:24.562Z,6.40
2019-04-14T23:50:55.419Z,6.44
2019-04-14T23:53:29.284Z,6.55
2019-04-14T23:56:00.142Z,6.66
2019-04-14T23:58:31.005Z,6.57
